sensor_id;sensor_type;location;lat;lon;timestamp;pressure;altitude;pressure_sealevel;temperature;humidity
58467;BME280;44255;49.244;7.726;2022-09-16T03:32:22;97805.69;;;10.91;75.36
58467;BME280;44255;49.244;7.726;2022-09-16T03:35:19;97805.41;;;11.09;75.64
58467;BME280;44255;49.244;7.726;2022-09-16T03:37:48;97809.56;;;11.00;75.58
58467;BME280;44255;49.244;7.726;2022-09-16T03:40:17;97810.00;;;10.94;76.21
58467;BME280;44255;49.244;7.726;2022-09-16T03:42:43;97815.16;;;10.97;75.94
58467;BME280;44255;49.244;7.726;2022-09-16T03:45:17;97819.34;;;11.14;76.44
58467;BME280;44255;49.244;7.726;2022-09-16T03:47:44;97813.44;;;10.96;76.62
58467;BME280;44255;49.244;7.726;2022-09-16T03:50:11;97815.38;;;10.94;76.97
58467;BME280;44255;49.244;7.726;2022-09-16T03:52:36;97809.34;;;11.03;76.02
58467;BME280;44255;49.244;7.726;2022-09-16T03:55:02;97806.94;;;10.86;76.70
58467;BME280;44255;49.244;7.726;2022-09-16T03:57:27;97807.75;;;11.01;76.43
58467;BME280;44255;49.244;7.726;2022-09-16T03:59:54;97812.41;;;10.84;77.84
58467;BME280;44255;49.244;7.726;2022-09-16T04:02:19;97806.44;;;10.93;77.40
58467;BME280;44255;49.244;7.726;2022-09-16T04:04:44;97808.06;;;10.96;77.37
58467;BME280;44255;49.244;7.726;2022-09-16T04:07:10;97805.94;;;11.01;76.70
58467;BME280;44255;49.244;7.726;2022-09-16T04:09:35;97805.78;;;10.90;77.35
58467;BME280;44255;49.244;7.726;2022-09-16T04:12:01;97802.41;;;11.01;77.20
58467;BME280;44255;49.244;7.726;2022-09-16T04:14:27;97799.09;;;10.83;77.75
58467;BME280;44255;49.244;7.726;2022-09-16T04:16:53;97801.94;;;10.94;77.67
58467;BME280;44255;49.244;7.726;2022-09-16T04:19:18;97802.94;;;11.06;76.88
58467;BME280;44255;49.244;7.726;2022-09-16T04:21:44;97791.31;;;11.05;76.64
58467;BME280;44255;49.244;7.726;2022-09-16T04:24:09;97796.13;;;10.87;77.22
58467;BME280;44255;49.244;7.726;2022-09-16T04:26:34;97791.03;;;10.83;77.50
58467;BME280;44255;49.244;7.726;2022-09-16T04:29:00;97778.13;;;11.02;77.22
58467;BME280;44255;49.244;7.726;2022-09-16T04:31:25;97783.50;;;11.02;77.47
58467;BME280;44255;49.244;7.726;2022-09-16T04:33:50;97777.47;;;10.99;77.26
58467;BME280;44255;49.244;7.726;2022-09-16T04:36:18;97784.50;;;10.87;77.36
58467;BME280;44255;49.244;7.726;2022-09-16T04:38:45;97771.25;;;10.98;77.92
58467;BME280;44255;49.244;7.726;2022-09-16T04:41:17;97780.19;;;11.12;77.52
58467;BME280;44255;49.244;7.726;2022-09-16T04:43:43;97779.63;;;11.06;77.51
58467;BME280;44255;49.244;7.726;2022-09-16T04:46:09;97779.44;;;11.10;77.25
58467;BME280;44255;49.244;7.726;2022-09-16T04:48:35;97786.44;;;10.85;77.30
58467;BME280;44255;49.244;7.726;2022-09-16T04:51:02;97783.25;;;10.92;77.90
58467;BME280;44255;49.244;7.726;2022-09-16T04:53:28;97793.72;;;10.83;77.75
58467;BME280;44255;49.244;7.726;2022-09-16T04:55:53;97795.25;;;10.87;77.45
58467;BME280;44255;49.244;7.726;2022-09-16T04:58:18;97782.31;;;10.93;77.72
58467;BME280;44255;49.244;7.726;2022-09-16T05:00:43;97789.16;;;10.98;78.08
58467;BME280;44255;49.244;7.726;2022-09-16T05:03:09;97782.69;;;10.87;77.83
58467;BME280;44255;49.244;7.726;2022-09-16T05:05:34;97783.31;;;10.78;78.56
58467;BME280;44255;49.244;7.726;2022-09-16T05:08:00;97779.53;;;10.95;78.10
58467;BME280;44255;49.244;7.726;2022-09-16T05:10:25;97790.34;;;10.93;77.76
58467;BME280;44255;49.244;7.726;2022-09-16T05:12:51;97789.91;;;11.00;77.38
58467;BME280;44255;49.244;7.726;2022-09-16T05:15:17;97795.22;;;10.74;77.87
58467;BME280;44255;49.244;7.726;2022-09-16T05:17:42;97799.19;;;10.81;77.80
58467;BME280;44255;49.244;7.726;2022-09-16T05:20:08;97800.38;;;10.77;78.64
58467;BME280;44255;49.244;7.726;2022-09-16T05:22:33;97804.16;;;10.87;78.74
58467;BME280;44255;49.244;7.726;2022-09-16T05:24:58;97803.91;;;11.05;77.82
58467;BME280;44255;49.244;7.726;2022-09-16T05:27:23;97808.59;;;11.01;78.08
58467;BME280;44255;49.244;7.726;2022-09-16T05:29:52;97800.25;;;10.93;78.58
58467;BME280;44255;49.244;7.726;2022-09-16T05:32:17;97811.59;;;10.97;78.09
58467;BME280;44255;49.244;7.726;2022-09-16T05:34:43;97798.19;;;10.97;78.01
58467;BME280;44255;49.244;7.726;2022-09-16T05:37:08;97804.53;;;11.09;77.94
58467;BME280;44255;49.244;7.726;2022-09-16T05:39:33;97807.44;;;11.05;77.85
58467;BME280;44255;49.244;7.726;2022-09-16T05:41:59;97812.50;;;10.83;78.42
58467;BME280;44255;49.244;7.726;2022-09-16T05:44:25;97803.66;;;10.95;78.23
58467;BME280;44255;49.244;7.726;2022-09-16T05:46:51;97805.50;;;11.07;77.76
58467;BME280;44255;49.244;7.726;2022-09-16T05:49:17;97797.03;;;11.01;78.28
58467;BME280;44255;49.244;7.726;2022-09-16T05:51:45;97807.56;;;11.04;77.99
58467;BME280;44255;49.244;7.726;2022-09-16T05:54:10;97808.00;;;11.11;78.08
58467;BME280;44255;49.244;7.726;2022-09-16T05:56:36;97806.47;;;11.06;78.03
58467;BME280;44255;49.244;7.726;2022-09-16T05:59:02;97806.88;;;11.00;78.56
58467;BME280;44255;49.244;7.726;2022-09-16T06:01:30;97808.81;;;10.98;78.15
58467;BME280;44255;49.244;7.726;2022-09-16T06:03:55;97806.28;;;11.10;78.35
58467;BME280;44255;49.244;7.726;2022-09-16T06:06:24;97807.13;;;11.10;78.09
58467;BME280;44255;49.244;7.726;2022-09-16T06:08:50;97815.47;;;11.05;78.24
58467;BME280;44255;49.244;7.726;2022-09-16T06:11:16;97806.06;;;11.13;77.91
58467;BME280;44255;49.244;7.726;2022-09-16T06:13:42;97812.47;;;10.97;78.09
58467;BME280;44255;49.244;7.726;2022-09-16T06:16:08;97812.72;;;11.20;76.64
58467;BME280;44255;49.244;7.726;2022-09-16T06:18:35;97822.56;;;11.06;77.26
58467;BME280;44255;49.244;7.726;2022-09-16T06:21:04;97827.69;;;10.97;77.31
58467;BME280;44255;49.244;7.726;2022-09-16T06:23:29;97824.81;;;11.00;77.52
58467;BME280;44255;49.244;7.726;2022-09-16T06:26:03;97827.63;;;11.11;78.26
58467;BME280;44255;49.244;7.726;2022-09-16T06:28:29;97833.00;;;11.24;77.66
58467;BME280;44255;49.244;7.726;2022-09-16T06:31:12;97829.25;;;11.40;77.00
58467;BME280;44255;49.244;7.726;2022-09-16T06:33:38;97821.31;;;11.51;77.27
58467;BME280;44255;49.244;7.726;2022-09-16T06:36:05;97824.97;;;11.63;76.85
58467;BME280;44255;49.244;7.726;2022-09-16T06:38:32;97814.88;;;11.67;77.17
58467;BME280;44255;49.244;7.726;2022-09-16T06:40:59;97816.25;;;11.59;76.72
58467;BME280;44255;49.244;7.726;2022-09-16T06:43:24;97812.53;;;11.49;77.48
58467;BME280;44255;49.244;7.726;2022-09-16T06:45:50;97821.25;;;11.53;77.73
58467;BME280;44255;49.244;7.726;2022-09-16T06:48:15;97809.28;;;11.70;77.63
58467;BME280;44255;49.244;7.726;2022-09-16T06:50:40;97808.84;;;11.76;76.18
58467;BME280;44255;49.244;7.726;2022-09-16T06:53:05;97809.28;;;11.70;76.66
58467;BME280;44255;49.244;7.726;2022-09-16T06:55:31;97814.44;;;11.73;76.07
58467;BME280;44255;49.244;7.726;2022-09-16T06:57:56;97809.59;;;11.91;75.53
58467;BME280;44255;49.244;7.726;2022-09-16T07:00:21;97813.34;;;12.01;75.78
58467;BME280;44255;49.244;7.726;2022-09-16T07:02:46;97807.41;;;12.09;76.10
58467;BME280;44255;49.244;7.726;2022-09-16T07:05:12;97805.16;;;12.16;75.74
58467;BME280;44255;49.244;7.726;2022-09-16T07:07:37;97808.56;;;12.31;76.62
58467;BME280;44255;49.244;7.726;2022-09-16T07:10:05;97824.84;;;12.16;75.88
58467;BME280;44255;49.244;7.726;2022-09-16T07:12:30;97819.00;;;12.23;76.29
58467;BME280;44255;49.244;7.726;2022-09-16T07:14:55;97811.44;;;12.28;75.37
58467;BME280;44255;49.244;7.726;2022-09-16T07:17:21;97813.94;;;12.18;75.82
58467;BME280;44255;49.244;7.726;2022-09-16T07:19:47;97811.75;;;12.36;75.55
58467;BME280;44255;49.244;7.726;2022-09-16T07:22:13;97822.19;;;12.65;75.57
58467;BME280;44255;49.244;7.726;2022-09-16T07:24:38;97816.69;;;12.67;76.14
58467;BME280;44255;49.244;7.726;2022-09-16T07:27:03;97817.16;;;12.85;74.37
58467;BME280;44255;49.244;7.726;2022-09-16T07:29:29;97823.44;;;12.97;73.34
58467;BME280;44255;49.244;7.726;2022-09-16T07:31:54;97823.03;;;12.90;73.49
58467;BME280;44255;49.244;7.726;2022-09-16T07:34:19;97816.19;;;12.97;73.67
58467;BME280;44255;49.244;7.726;2022-09-16T07:36:47;97821.38;;;13.00;72.90
58467;BME280;44255;49.244;7.726;2022-09-16T07:39:14;97830.22;;;13.02;72.61
58467;BME280;44255;49.244;7.726;2022-09-16T07:41:42;97835.00;;;12.86;72.16
58467;BME280;44255;49.244;7.726;2022-09-16T07:44:10;97839.06;;;12.43;75.52
58467;BME280;44255;49.244;7.726;2022-09-16T07:46:36;97830.72;;;13.08;72.86
58467;BME280;44255;49.244;7.726;2022-09-16T07:49:04;97834.38;;;12.82;70.29
58467;BME280;44255;49.244;7.726;2022-09-16T07:51:30;97831.13;;;12.28;70.57
58467;BME280;44255;49.244;7.726;2022-09-16T07:53:58;97827.91;;;12.36;66.52
58467;BME280;44255;49.244;7.726;2022-09-16T07:56:26;97824.19;;;12.50;66.35
58467;BME280;44255;49.244;7.726;2022-09-16T07:58:53;97832.16;;;12.52;66.27
58467;BME280;44255;49.244;7.726;2022-09-16T08:01:19;97837.94;;;12.58;64.87
58467;BME280;44255;49.244;7.726;2022-09-16T08:03:45;97842.94;;;12.63;65.79
58467;BME280;44255;49.244;7.726;2022-09-16T08:06:16;97843.78;;;12.39;64.57
58467;BME280;44255;49.244;7.726;2022-09-16T08:08:42;97841.53;;;12.70;65.68
58467;BME280;44255;49.244;7.726;2022-09-16T08:11:09;97850.28;;;12.85;63.92
58467;BME280;44255;49.244;7.726;2022-09-16T08:13:36;97840.41;;;13.80;60.92
58467;BME280;44255;49.244;7.726;2022-09-16T08:16:06;97836.19;;;13.42;59.43
58467;BME280;44255;49.244;7.726;2022-09-16T08:18:32;97843.19;;;12.84;60.07
58467;BME280;44255;49.244;7.726;2022-09-16T08:20:58;97843.28;;;12.34;60.55
58467;BME280;44255;49.244;7.726;2022-09-16T08:23:28;97848.50;;;12.97;59.34
58467;BME280;44255;49.244;7.726;2022-09-16T08:25:57;97844.31;;;13.06;60.07
58467;BME280;44255;49.244;7.726;2022-09-16T08:28:23;97855.44;;;13.13;57.76
58467;BME280;44255;49.244;7.726;2022-09-16T08:30:49;97853.44;;;12.55;57.05
58467;BME280;44255;49.244;7.726;2022-09-16T08:33:14;97860.09;;;13.11;54.79
58467;BME280;44255;49.244;7.726;2022-09-16T08:35:39;97859.84;;;12.65;57.08
58467;BME280;44255;49.244;7.726;2022-09-16T08:38:04;97869.19;;;12.35;55.70
58467;BME280;44255;49.244;7.726;2022-09-16T08:40:34;97874.56;;;12.72;56.01
58467;BME280;44255;49.244;7.726;2022-09-16T08:43:21;97870.03;;;12.35;57.36
58467;BME280;44255;49.244;7.726;2022-09-16T08:45:53;97879.84;;;12.98;56.66
58467;BME280;44255;49.244;7.726;2022-09-16T08:48:25;97883.72;;;12.94;56.75
58467;BME280;44255;49.244;7.726;2022-09-16T08:50:56;97867.78;;;12.42;56.96
58467;BME280;44255;49.244;7.726;2022-09-16T08:53:46;97874.06;;;12.67;56.45
58467;BME280;44255;49.244;7.726;2022-09-16T08:56:16;97882.25;;;12.90;57.08
58467;BME280;44255;49.244;7.726;2022-09-16T08:58:49;97888.59;;;12.14;57.17
58467;BME280;44255;49.244;7.726;2022-09-16T09:01:28;97885.66;;;12.68;56.17
58467;BME280;44255;49.244;7.726;2022-09-16T09:03:56;97894.25;;;12.97;55.26
58467;BME280;44255;49.244;7.726;2022-09-16T09:06:32;97891.13;;;12.42;56.81
58467;BME280;44255;49.244;7.726;2022-09-16T09:11:58;97889.19;;;13.05;56.37
58467;BME280;44255;49.244;7.726;2022-09-16T09:14:42;97894.56;;;13.05;54.26
58467;BME280;44255;49.244;7.726;2022-09-16T09:17:24;97891.56;;;12.97;55.14
58467;BME280;44255;49.244;7.726;2022-09-16T09:20:06;97874.28;;;13.48;52.84
58467;BME280;44255;49.244;7.726;2022-09-16T09:23:01;97876.19;;;12.62;52.89
58467;BME280;44255;49.244;7.726;2022-09-16T09:31:16;97867.56;;;12.94;53.51
58467;BME280;44255;49.244;7.726;2022-09-16T09:42:21;97850.84;;;13.96;50.24
58467;BME280;44255;49.244;7.726;2022-09-16T09:44:58;97853.00;;;13.68;49.43
58467;BME280;44255;49.244;7.726;2022-09-16T09:47:33;97869.13;;;13.10;49.17
58467;BME280;44255;49.244;7.726;2022-09-16T09:50:14;97864.00;;;13.07;50.69
58467;BME280;44255;49.244;7.726;2022-09-16T09:52:55;97868.13;;;12.62;52.86
58467;BME280;44255;49.244;7.726;2022-09-16T09:55:25;97862.28;;;13.41;50.93
58467;BME280;44255;49.244;7.726;2022-09-16T09:58:08;97869.13;;;12.85;51.35
58467;BME280;44255;49.244;7.726;2022-09-16T10:00:38;97872.03;;;12.82;51.16
58467;BME280;44255;49.244;7.726;2022-09-16T10:03:08;97867.97;;;13.25;49.83
58467;BME280;44255;49.244;7.726;2022-09-16T10:05:34;97866.97;;;13.15;50.43
58467;BME280;44255;49.244;7.726;2022-09-16T10:10:54;97864.09;;;13.41;49.62
58467;BME280;44255;49.244;7.726;2022-09-16T10:13:21;97847.75;;;13.78;48.55
58467;BME280;44255;49.244;7.726;2022-09-16T10:15:48;97845.88;;;13.44;50.09
58467;BME280;44255;49.244;7.726;2022-09-16T10:18:28;97847.88;;;13.65;49.65
58467;BME280;44255;49.244;7.726;2022-09-16T10:21:04;97847.06;;;14.10;46.36
58467;BME280;44255;49.244;7.726;2022-09-16T10:23:30;97847.91;;;14.22;46.83
58467;BME280;44255;49.244;7.726;2022-09-16T10:26:06;97848.00;;;14.32;46.14
58467;BME280;44255;49.244;7.726;2022-09-16T10:28:32;97853.44;;;14.21;45.88
58467;BME280;44255;49.244;7.726;2022-09-16T10:30:58;97846.06;;;13.88;46.71
58467;BME280;44255;49.244;7.726;2022-09-16T10:33:29;97838.41;;;14.51;46.65
58467;BME280;44255;49.244;7.726;2022-09-16T10:36:07;97847.94;;;13.99;48.02
58467;BME280;44255;49.244;7.726;2022-09-16T10:38:38;97845.81;;;13.91;47.21
58467;BME280;44255;49.244;7.726;2022-09-16T10:41:08;97849.69;;;13.53;47.18
58467;BME280;44255;49.244;7.726;2022-09-16T10:43:36;97842.41;;;14.01;46.13
58467;BME280;44255;49.244;7.726;2022-09-16T10:46:03;97840.56;;;14.01;46.32
58467;BME280;44255;49.244;7.726;2022-09-16T10:48:30;97838.94;;;13.87;46.50
58467;BME280;44255;49.244;7.726;2022-09-16T10:50:59;97841.88;;;13.96;46.23
58467;BME280;44255;49.244;7.726;2022-09-16T10:53:34;97840.47;;;14.03;46.58
58467;BME280;44255;49.244;7.726;2022-09-16T10:56:04;97836.34;;;14.54;45.62
58467;BME280;44255;49.244;7.726;2022-09-16T10:58:29;97837.03;;;14.68;46.82
58467;BME280;44255;49.244;7.726;2022-09-16T11:03:53;97834.69;;;14.19;45.64
58467;BME280;44255;49.244;7.726;2022-09-16T11:09:30;97836.53;;;14.07;46.31
58467;BME280;44255;49.244;7.726;2022-09-16T11:20:40;97836.91;;;14.69;43.82
58467;BME280;44255;49.244;7.726;2022-09-16T11:28:45;97834.13;;;15.03;43.63
58467;BME280;44255;49.244;7.726;2022-09-16T11:34:14;97844.13;;;14.13;43.86
58467;BME280;44255;49.244;7.726;2022-09-16T11:36:59;97837.47;;;14.40;43.94
58467;BME280;44255;49.244;7.726;2022-09-16T11:39:51;97835.72;;;15.27;42.71
58467;BME280;44255;49.244;7.726;2022-09-16T11:42:34;97834.50;;;14.55;43.49
58467;BME280;44255;49.244;7.726;2022-09-16T11:47:57;97833.00;;;14.51;45.13
58467;BME280;44255;49.244;7.726;2022-09-16T11:55:56;97831.41;;;14.59;43.37
58467;BME280;44255;49.244;7.726;2022-09-16T11:58:43;97834.09;;;14.59;43.53
58467;BME280;44255;49.244;7.726;2022-09-16T12:04:22;97818.63;;;15.69;41.33
58467;BME280;44255;49.244;7.726;2022-09-16T12:06:54;97813.72;;;16.15;40.84
58467;BME280;44255;49.244;7.726;2022-09-16T12:09:30;97808.50;;;15.83;39.44
58467;BME280;44255;49.244;7.726;2022-09-16T12:12:14;97814.63;;;15.42;41.05
58467;BME280;44255;49.244;7.726;2022-09-16T12:15:28;97803.41;;;15.89;41.29
58467;BME280;44255;49.244;7.726;2022-09-16T12:17:31;97800.50;;;15.81;40.30
58467;BME280;44255;49.244;7.726;2022-09-16T12:20:04;97786.38;;;17.28;38.11
58467;BME280;44255;49.244;7.726;2022-09-16T12:22:43;97808.41;;;16.55;40.11
58467;BME280;44255;49.244;7.726;2022-09-16T12:25:25;97803.88;;;15.52;41.71
58467;BME280;44255;49.244;7.726;2022-09-16T12:28:04;97815.94;;;15.27;42.88
58467;BME280;44255;49.244;7.726;2022-09-16T12:30:47;97810.03;;;15.54;42.09
58467;BME280;44255;49.244;7.726;2022-09-16T12:35:54;97805.78;;;15.19;43.83
58467;BME280;44255;49.244;7.726;2022-09-16T12:38:20;97812.41;;;15.26;41.94
58467;BME280;44255;49.244;7.726;2022-09-16T12:47:15;97803.19;;;16.73;37.25
58467;BME280;44255;49.244;7.726;2022-09-16T13:01:26;97776.88;;;18.56;34.83
58467;BME280;44255;49.244;7.726;2022-09-16T13:04:00;97769.94;;;19.87;32.77
58467;BME280;44255;49.244;7.726;2022-09-16T13:06:31;97779.09;;;19.33;33.19
58467;BME280;44255;49.244;7.726;2022-09-16T13:09:12;97798.63;;;18.74;35.28
58467;BME280;44255;49.244;7.726;2022-09-16T13:11:39;97803.72;;;18.95;34.20
58467;BME280;44255;49.244;7.726;2022-09-16T13:14:19;97773.75;;;19.23;34.02
58467;BME280;44255;49.244;7.726;2022-09-16T13:16:53;97781.94;;;17.47;36.36
58467;BME280;44255;49.244;7.726;2022-09-16T13:22:23;97787.72;;;15.62;39.31
58467;BME280;44255;49.244;7.726;2022-09-16T13:25:19;97785.31;;;15.69;39.67
58467;BME280;44255;49.244;7.726;2022-09-16T13:28:01;97781.84;;;16.80;38.17
58467;BME280;44255;49.244;7.726;2022-09-16T13:30:32;97835.91;;;18.16;35.82
58467;BME280;44255;49.244;7.726;2022-09-16T13:33:00;97874.78;;;21.37;30.08
58467;BME280;44255;49.244;7.726;2022-09-16T13:35:41;97854.84;;;22.34;28.89
58467;BME280;44255;49.244;7.726;2022-09-16T13:38:20;97762.22;;;19.03;33.53
58467;BME280;44255;49.244;7.726;2022-09-16T13:41:00;97772.50;;;17.89;35.85
58467;BME280;44255;49.244;7.726;2022-09-16T13:46:09;97824.59;;;24.89;26.20
58467;BME280;44255;49.244;7.726;2022-09-16T13:48:43;97839.00;;;25.35;24.39
58467;BME280;44255;49.244;7.726;2022-09-16T13:51:15;97761.97;;;27.11;22.56
58467;BME280;44255;49.244;7.726;2022-09-16T13:53:46;97768.56;;;27.64;21.34
58467;BME280;44255;49.244;7.726;2022-09-16T13:58:46;97800.34;;;27.46;19.95
58467;BME280;44255;49.244;7.726;2022-09-16T14:01:21;97768.31;;;27.92;20.68
58467;BME280;44255;49.244;7.726;2022-09-16T14:09:22;97771.44;;;30.09;20.30
58467;BME280;44255;49.244;7.726;2022-09-16T14:12:09;97779.94;;;30.64;18.37
58467;BME280;44255;49.244;7.726;2022-09-16T14:14:37;97777.38;;;24.94;23.34
58467;BME280;44255;49.244;7.726;2022-09-16T14:17:11;97791.03;;;18.32;31.60
58467;BME280;44255;49.244;7.726;2022-09-16T14:19:38;97792.63;;;15.99;36.93
58467;BME280;44255;49.244;7.726;2022-09-16T14:22:17;97790.13;;;15.86;37.74
58467;BME280;44255;49.244;7.726;2022-09-16T14:24:44;97793.09;;;15.83;38.73
58467;BME280;44255;49.244;7.726;2022-09-16T14:27:27;97794.75;;;15.22;40.38
58467;BME280;44255;49.244;7.726;2022-09-16T14:30:00;97805.66;;;15.21;40.91
58467;BME280;44255;49.244;7.726;2022-09-16T14:32:34;97799.94;;;15.14;41.46
58467;BME280;44255;49.244;7.726;2022-09-16T14:35:09;97803.97;;;14.43;43.48
58467;BME280;44255;49.244;7.726;2022-09-16T14:37:37;97825.69;;;13.96;45.17
58467;BME280;44255;49.244;7.726;2022-09-16T14:40:09;97829.50;;;13.70;46.52
58467;BME280;44255;49.244;7.726;2022-09-16T14:42:35;97831.72;;;14.33;45.62
58467;BME280;44255;49.244;7.726;2022-09-16T14:45:01;97840.91;;;13.74;47.14
58467;BME280;44255;49.244;7.726;2022-09-16T14:47:31;97831.34;;;14.27;46.29
58467;BME280;44255;49.244;7.726;2022-09-16T14:50:07;97824.88;;;14.07;46.91
58467;BME280;44255;49.244;7.726;2022-09-16T14:52:37;97825.88;;;14.72;45.62
58467;BME280;44255;49.244;7.726;2022-09-16T14:55:12;97830.66;;;13.32;47.79
58467;BME280;44255;49.244;7.726;2022-09-16T14:57:40;97828.41;;;13.73;46.97
58467;BME280;44255;49.244;7.726;2022-09-16T15:00:11;97835.28;;;14.00;46.73
58467;BME280;44255;49.244;7.726;2022-09-16T15:02:54;97832.34;;;14.26;46.11
58467;BME280;44255;49.244;7.726;2022-09-16T15:05:35;97830.38;;;13.71;47.48
58467;BME280;44255;49.244;7.726;2022-09-16T15:08:22;97832.66;;;13.41;47.11
58467;BME280;44255;49.244;7.726;2022-09-16T15:10:53;97818.84;;;13.57;47.01
58467;BME280;44255;49.244;7.726;2022-09-16T15:13:27;97828.44;;;13.26;47.32
58467;BME280;44255;49.244;7.726;2022-09-16T15:18:34;97838.69;;;13.09;48.45
58467;BME280;44255;49.244;7.726;2022-09-16T15:21:07;97836.69;;;13.36;47.58
58467;BME280;44255;49.244;7.726;2022-09-16T15:23:36;97838.03;;;13.05;47.61
58467;BME280;44255;49.244;7.726;2022-09-16T15:26:14;97831.81;;;13.63;46.60
58467;BME280;44255;49.244;7.726;2022-09-16T15:28:57;97834.78;;;13.95;46.41
58467;BME280;44255;49.244;7.726;2022-09-16T15:31:33;97842.63;;;13.75;46.16
58467;BME280;44255;49.244;7.726;2022-09-16T15:36:44;97830.28;;;15.70;43.11
58467;BME280;44255;49.244;7.726;2022-09-16T15:39:31;97844.25;;;14.67;43.98
58467;BME280;44255;49.244;7.726;2022-09-16T15:44:53;97841.06;;;14.18;45.94
58467;BME280;44255;49.244;7.726;2022-09-16T15:49:53;97837.84;;;13.79;46.74
58467;BME280;44255;49.244;7.726;2022-09-16T15:52:20;97849.97;;;13.96;47.10
58467;BME280;44255;49.244;7.726;2022-09-16T15:54:51;97846.19;;;13.28;48.57
58467;BME280;44255;49.244;7.726;2022-09-16T15:57:28;97838.94;;;13.76;47.63
58467;BME280;44255;49.244;7.726;2022-09-16T16:00:00;97842.63;;;13.75;48.32
58467;BME280;44255;49.244;7.726;2022-09-16T16:02:38;97852.28;;;13.19;49.75
58467;BME280;44255;49.244;7.726;2022-09-16T16:05:09;97843.31;;;13.66;48.80
58467;BME280;44255;49.244;7.726;2022-09-16T16:07:43;97847.16;;;13.16;50.26
58467;BME280;44255;49.244;7.726;2022-09-16T16:10:27;97841.81;;;13.39;49.75
58467;BME280;44255;49.244;7.726;2022-09-16T16:12:54;97851.03;;;13.12;49.73
58467;BME280;44255;49.244;7.726;2022-09-16T16:15:23;97857.34;;;12.99;50.56
58467;BME280;44255;49.244;7.726;2022-09-16T16:17:51;97852.53;;;13.16;49.89
58467;BME280;44255;49.244;7.726;2022-09-16T16:20:18;97856.41;;;12.63;51.52
58467;BME280;44255;49.244;7.726;2022-09-16T16:22:45;97865.47;;;13.11;50.36
58467;BME280;44255;49.244;7.726;2022-09-16T16:25:11;97864.53;;;12.00;51.49
58467;BME280;44255;49.244;7.726;2022-09-16T16:27:37;97887.75;;;12.01;52.24
58467;BME280;44255;49.244;7.726;2022-09-16T16:30:03;97900.00;;;11.13;53.92
58467;BME280;44255;49.244;7.726;2022-09-16T16:32:28;97903.19;;;10.63;55.89
58467;BME280;44255;49.244;7.726;2022-09-16T16:34:56;97912.66;;;10.27;57.56
58467;BME280;44255;49.244;7.726;2022-09-16T16:37:23;97906.13;;;10.16;57.89
58467;BME280;44255;49.244;7.726;2022-09-16T16:39:49;97915.34;;;10.27;58.19
58467;BME280;44255;49.244;7.726;2022-09-16T16:42:15;97914.84;;;10.34;58.62
58467;BME280;44255;49.244;7.726;2022-09-16T16:44:40;97911.88;;;10.25;59.02
58467;BME280;44255;49.244;7.726;2022-09-16T16:47:06;97911.41;;;10.32;59.26
58467;BME280;44255;49.244;7.726;2022-09-16T16:49:32;97908.53;;;10.35;59.38
58467;BME280;44255;49.244;7.726;2022-09-16T16:52:01;97920.88;;;10.24;60.00
58467;BME280;44255;49.244;7.726;2022-09-16T16:54:27;97916.09;;;10.00;60.60
58467;BME280;44255;49.244;7.726;2022-09-16T16:56:53;97920.84;;;10.53;59.67
58467;BME280;44255;49.244;7.726;2022-09-16T16:59:18;97912.31;;;10.88;58.75
58467;BME280;44255;49.244;7.726;2022-09-16T17:01:45;97910.78;;;11.39;58.41
58467;BME280;44255;49.244;7.726;2022-09-16T17:04:11;97916.16;;;10.98;59.00
58467;BME280;44255;49.244;7.726;2022-09-16T17:06:37;97913.00;;;10.49;60.53
58467;BME280;44255;49.244;7.726;2022-09-16T17:09:05;97913.75;;;10.93;60.01
58467;BME280;44255;49.244;7.726;2022-09-16T17:11:31;97908.94;;;10.99;59.79
58467;BME280;44255;49.244;7.726;2022-09-16T17:13:59;97903.59;;;11.39;60.23
58467;BME280;44255;49.244;7.726;2022-09-16T17:16:25;97910.59;;;11.14;61.09
58467;BME280;44255;49.244;7.726;2022-09-16T17:18:51;97906.16;;;11.41;59.47
58467;BME280;44255;49.244;7.726;2022-09-16T17:21:25;97900.72;;;11.55;59.61
58467;BME280;44255;49.244;7.726;2022-09-16T17:23:51;97901.53;;;11.30;60.48
58467;BME280;44255;49.244;7.726;2022-09-16T17:26:17;97905.28;;;11.27;59.82
58467;BME280;44255;49.244;7.726;2022-09-16T17:28:45;97909.59;;;11.43;60.06
58467;BME280;44255;49.244;7.726;2022-09-16T17:31:14;97920.56;;;11.40;60.53
58467;BME280;44255;49.244;7.726;2022-09-16T17:33:40;97916.91;;;11.41;60.36
58467;BME280;44255;49.244;7.726;2022-09-16T17:36:07;97915.31;;;11.38;60.44
58467;BME280;44255;49.244;7.726;2022-09-16T17:38:33;97917.50;;;11.18;61.12
58467;BME280;44255;49.244;7.726;2022-09-16T17:41:09;97915.81;;;11.30;60.63
58467;BME280;44255;49.244;7.726;2022-09-16T17:43:35;97914.75;;;11.05;61.34
58467;BME280;44255;49.244;7.726;2022-09-16T17:46:04;97913.13;;;11.30;61.20
58467;BME280;44255;49.244;7.726;2022-09-16T17:48:30;97907.44;;;10.95;61.61
58467;BME280;44255;49.244;7.726;2022-09-16T17:50:56;97914.16;;;11.15;62.17
58467;BME280;44255;49.244;7.726;2022-09-16T17:53:21;97914.50;;;11.23;61.60
58467;BME280;44255;49.244;7.726;2022-09-16T17:55:47;97914.81;;;10.91;62.48
58467;BME280;44255;49.244;7.726;2022-09-16T17:58:13;97916.66;;;10.90;62.99
58467;BME280;44255;49.244;7.726;2022-09-16T18:00:39;97918.09;;;10.96;62.97
58467;BME280;44255;49.244;7.726;2022-09-16T18:03:04;97919.06;;;10.81;63.82
58467;BME280;44255;49.244;7.726;2022-09-16T18:05:33;97923.53;;;10.80;63.82
58467;BME280;44255;49.244;7.726;2022-09-16T18:07:58;97934.38;;;10.78;63.93
58467;BME280;44255;49.244;7.726;2022-09-16T18:10:23;97924.88;;;10.87;63.49
58467;BME280;44255;49.244;7.726;2022-09-16T18:12:49;97931.19;;;10.59;64.13
58467;BME280;44255;49.244;7.726;2022-09-16T18:15:14;97931.75;;;10.64;64.13
58467;BME280;44255;49.244;7.726;2022-09-16T18:17:39;97937.50;;;10.58;64.59
58467;BME280;44255;49.244;7.726;2022-09-16T18:20:05;97926.94;;;10.69;64.06
58467;BME280;44255;49.244;7.726;2022-09-16T18:22:31;97924.41;;;10.81;63.50
58467;BME280;44255;49.244;7.726;2022-09-16T18:24:56;97928.75;;;10.69;63.55